KLNA/LNA METAR and TAF weather

Enter ICAO airport designator
Station Type Date Time Source
KLNA METAR 2020/10/22 03:35 UTC NOAA

KLNA 220335Z AUTO 10013G19KT 10SM CLR 26/23 A3000 RMK AO2 T02630231 PNO


Station Type Date Time Source
KLNA Decoded METAR 2020/10/22 03:35 UTC NOAA

Station name not available
Oct 21, 2020 - 11:35 PM EDT / 2020.10.22 0335 UTC
Wind: from the E (100 degrees) at 15 MPH (13 KT) gusting to 22 MPH (19 KT):0
Visibility: 10 mile(s):0
Sky conditions: clear
Temperature: 79.3 F (26.3 C)
Dew Point: 73.6 F (23.1 C)
Relative Humidity: 82%
Pressure (altimeter): 30 in. Hg (1015 hPa)
ob: KLNA 220335Z AUTO 10013G19KT 10SM CLR 26/23 A3000 RMK AO2 T02630231 PNO
cycle: 3

Station Type Date Time Source
KLNA TAF UTC NOAA

Error!

Example: see airport list